createdAt,value
2018-12-29T00:02:25.735Z,19.43
2018-12-29T00:05:06.946Z,22.17
2018-12-29T00:07:48.115Z,20.10
2018-12-29T00:10:29.650Z,20.47
2018-12-29T00:13:10.554Z,19.47
2018-12-29T00:15:51.899Z,21.60
2018-12-29T00:18:32.834Z,18.87
2018-12-29T00:21:13.503Z,18.57
2018-12-29T00:23:54.918Z,23.90
2018-12-29T00:26:36.170Z,21.60
2018-12-29T00:29:17.454Z,23.57
2018-12-29T00:31:58.275Z,22.43
2018-12-29T00:34:39.655Z,22.53
2018-12-29T00:37:21.014Z,23.73
2018-12-29T00:40:02.414Z,22.57
2018-12-29T00:42:42.932Z,24.03
2018-12-29T00:45:23.762Z,23.70
2018-12-29T00:48:04.514Z,22.13
2018-12-29T00:50:46.027Z,27.20
2018-12-29T00:53:27.294Z,25.43
2018-12-29T00:56:08.807Z,27.27
2018-12-29T00:58:49.706Z,25.27
2018-12-29T01:01:30.754Z,22.07
2018-12-29T01:04:12.067Z,29.00
2018-12-29T01:06:53.580Z,26.20
2018-12-29T01:09:34.884Z,23.73
2018-12-29T01:12:15.442Z,22.90
2018-12-29T01:14:54.918Z,24.90
2018-12-29T01:17:43.254Z,28.63
2018-12-29T01:20:24.791Z,21.97
2018-12-29T01:23:05.719Z,23.20
2018-12-29T01:25:47.136Z,27.90
2018-12-29T01:28:28.138Z,24.57
2018-12-29T01:31:09.307Z,22.27
2018-12-29T01:33:49.916Z,26.60
2018-12-29T01:36:30.514Z,21.63
2018-12-29T01:39:10.944Z,24.57
2018-12-29T01:41:52.176Z,26.23
2018-12-29T01:44:32.063Z,25.37
2018-12-29T01:47:12.986Z,23.87
2018-12-29T01:49:53.530Z,21.03
2018-12-29T01:52:34.440Z,22.23
2018-12-29T01:55:15.619Z,23.40
2018-12-29T01:57:57.115Z,22.23
2018-12-29T02:00:37.827Z,18.37
2018-12-29T02:03:18.464Z,24.07
2018-12-29T02:05:59.903Z,24.03
2018-12-29T02:08:40.505Z,22.20
2018-12-29T02:11:21.194Z,26.10
2018-12-29T02:14:02.650Z,23.90
2018-12-29T02:16:43.364Z,24.97
2018-12-29T02:19:23.870Z,24.27
2018-12-29T02:22:04.990Z,19.43
2018-12-29T02:24:46.498Z,20.33
2018-12-29T02:27:27.895Z,20.87
2018-12-29T02:30:09.416Z,21.73
2018-12-29T02:32:50.079Z,22.73
2018-12-29T02:35:30.803Z,19.50
2018-12-29T02:38:10.513Z,21.47
2018-12-29T02:40:58.829Z,21.87
2018-12-29T02:43:39.603Z,26.80
2018-12-29T02:46:20.358Z,17.50
2018-12-29T02:49:01.783Z,24.80
2018-12-29T02:51:43.064Z,21.27
2018-12-29T02:54:24.400Z,20.90
2018-12-29T02:57:06.350Z,19.73
2018-12-29T02:59:47.683Z,20.77
2018-12-29T03:02:29.718Z,21.90
2018-12-29T03:05:10.826Z,21.43
2018-12-29T03:07:50.484Z,25.33
2018-12-29T03:10:38.780Z,21.50
2018-12-29T03:13:19.603Z,19.40
2018-12-29T03:16:01.099Z,19.67
2018-12-29T03:18:40.435Z,21.63
2018-12-29T03:21:28.658Z,22.57
2018-12-29T03:24:09.941Z,20.47
2018-12-29T03:26:51.113Z,20.37
2018-12-29T03:29:32.575Z,22.23
2018-12-29T03:32:13.244Z,18.83
2018-12-29T03:34:54.641Z,21.27
2018-12-29T03:37:35.627Z,18.37
2018-12-29T03:40:16.797Z,18.17
2018-12-29T03:42:57.541Z,18.13
2018-12-29T03:45:38.976Z,20.50
2018-12-29T03:48:20.790Z,19.40
2018-12-29T03:51:01.749Z,21.17
2018-12-29T03:53:42.355Z,19.43
2018-12-29T03:56:23.098Z,17.77
2018-12-29T03:59:03.030Z,21.20
2018-12-29T04:01:44.534Z,18.57
2018-12-29T04:04:26.081Z,22.67
2018-12-29T04:07:06.750Z,18.27
2018-12-29T04:09:47.323Z,15.83
2018-12-29T04:12:28.014Z,19.40
2018-12-29T04:15:09.218Z,18.70
2018-12-29T04:17:50.473Z,14.73
2018-12-29T04:20:31.123Z,18.00
2018-12-29T04:23:11.782Z,16.87
2018-12-29T04:25:52.415Z,15.97
2018-12-29T04:28:33.486Z,17.00
2018-12-29T04:31:13.066Z,16.87
2018-12-29T04:34:01.422Z,20.73
2018-12-29T04:36:42.402Z,19.73
2018-12-29T04:39:23.836Z,22.60
2018-12-29T04:42:05.054Z,19.30
2018-12-29T04:44:46.006Z,17.10
2018-12-29T04:47:27.605Z,16.83
2018-12-29T04:50:08.760Z,16.67
2018-12-29T04:52:49.411Z,17.27
2018-12-29T04:55:30.851Z,18.27
2018-12-29T04:58:11.489Z,16.50
2018-12-29T05:00:52.149Z,14.57
2018-12-29T05:03:32.799Z,15.53
2018-12-29T05:06:13.731Z,15.23
2018-12-29T05:08:55.167Z,14.57
2018-12-29T05:11:36.597Z,15.07
2018-12-29T05:14:17.666Z,17.43
2018-12-29T05:16:58.453Z,15.13
2018-12-29T05:19:39.128Z,16.90
2018-12-29T05:22:19.922Z,12.93
2018-12-29T05:25:00.647Z,16.57
2018-12-29T05:27:42.126Z,16.27
2018-12-29T05:30:23.507Z,14.10
2018-12-29T05:33:04.953Z,13.57
2018-12-29T05:35:46.414Z,13.97
2018-12-29T05:38:27.101Z,17.07
2018-12-29T05:41:07.932Z,15.00
2018-12-29T05:43:49.594Z,14.63
2018-12-29T05:46:30.252Z,14.97
2018-12-29T05:49:11.594Z,13.40
2018-12-29T05:51:52.353Z,13.60
2018-12-29T05:54:33.286Z,15.30
2018-12-29T05:57:14.714Z,17.23
2018-12-29T05:59:55.213Z,13.13
2018-12-29T06:02:36.666Z,12.97
2018-12-29T06:05:17.595Z,14.93
2018-12-29T06:07:58.427Z,14.17
2018-12-29T06:10:39.309Z,14.77
2018-12-29T06:13:20.691Z,16.63
2018-12-29T06:16:01.143Z,11.70
2018-12-29T06:18:42.317Z,11.30
2018-12-29T06:21:23.463Z,11.97
2018-12-29T06:24:04.167Z,15.70
2018-12-29T06:26:42.719Z,13.30
2018-12-29T06:29:24.042Z,15.47
2018-12-29T06:32:05.343Z,13.67
2018-12-29T06:34:46.535Z,10.23
2018-12-29T06:37:27.818Z,12.33
2018-12-29T06:40:09.276Z,14.10
2018-12-29T06:42:50.191Z,16.20
2018-12-29T06:45:29.879Z,13.87
2018-12-29T06:48:18.246Z,16.47
2018-12-29T06:50:59.202Z,13.70
2018-12-29T06:53:40.195Z,16.07
2018-12-29T06:56:20.930Z,13.20
2018-12-29T06:59:01.579Z,12.47
2018-12-29T07:01:42.082Z,14.33
2018-12-29T07:04:23.406Z,14.33
2018-12-29T07:07:04.755Z,13.83
2018-12-29T07:09:45.455Z,15.87
2018-12-29T07:12:26.367Z,14.70
2018-12-29T07:15:07.499Z,15.67
2018-12-29T07:17:48.351Z,13.90
2018-12-29T07:20:29.004Z,16.93
2018-12-29T07:23:09.503Z,13.27
2018-12-29T07:25:49.487Z,12.70
2018-12-29T07:28:30.919Z,15.23
2018-12-29T07:31:11.478Z,15.53
2018-12-29T07:33:52.886Z,11.77
2018-12-29T07:36:33.951Z,15.70
2018-12-29T07:39:14.831Z,14.00
2018-12-29T07:41:55.491Z,15.43
2018-12-29T07:44:36.899Z,17.47
2018-12-29T07:47:18.314Z,13.00
2018-12-29T07:49:59.175Z,14.37
2018-12-29T07:52:39.935Z,16.73
2018-12-29T07:55:20.796Z,14.73
2018-12-29T07:58:02.146Z,14.17
2018-12-29T08:00:42.741Z,14.73
2018-12-29T08:03:23.667Z,16.17
2018-12-29T08:06:04.499Z,13.43
2018-12-29T08:08:45.726Z,16.90
2018-12-29T08:11:26.923Z,13.37
2018-12-29T08:14:07.650Z,15.60
2018-12-29T08:16:48.299Z,12.37
2018-12-29T08:19:29.263Z,13.33
2018-12-29T08:22:10.747Z,15.50
2018-12-29T08:24:51.886Z,12.77
2018-12-29T08:27:32.720Z,14.23
2018-12-29T08:30:14.124Z,14.43
2018-12-29T08:32:54.787Z,16.03
2018-12-29T08:35:34.239Z,15.50
2018-12-29T08:38:22.619Z,13.37
2018-12-29T08:41:03.971Z,12.50
2018-12-29T08:43:45.106Z,12.83
2018-12-29T08:46:26.448Z,14.13
2018-12-29T08:49:07.204Z,12.70
2018-12-29T08:51:47.872Z,14.80
2018-12-29T08:54:29.174Z,14.17
2018-12-29T08:57:10.587Z,18.43
2018-12-29T08:59:51.874Z,13.47
2018-12-29T09:02:32.701Z,14.00
2018-12-29T09:05:14.145Z,17.40
2018-12-29T09:07:55.463Z,16.70
2018-12-29T09:10:36.934Z,13.23
2018-12-29T09:13:18.099Z,14.47
2018-12-29T09:15:58.747Z,12.47
2018-12-29T09:18:39.286Z,13.80
2018-12-29T09:21:20.107Z,15.97
2018-12-29T09:24:01.415Z,16.20
2018-12-29T09:26:42.304Z,15.07
2018-12-29T09:29:23.721Z,12.50
2018-12-29T09:32:04.768Z,13.77
2018-12-29T09:34:45.509Z,13.87
2018-12-29T09:37:27.032Z,12.47
2018-12-29T09:40:07.958Z,15.97
2018-12-29T09:42:48.894Z,14.40
2018-12-29T09:45:29.780Z,14.77
2018-12-29T09:48:10.938Z,12.87
2018-12-29T09:50:52.164Z,15.00
2018-12-29T09:53:31.885Z,16.93
2018-12-29T09:56:12.526Z,16.40
2018-12-29T09:58:54.047Z,22.87
2018-12-29T10:01:35.555Z,10.73
2018-12-29T10:04:16.262Z,17.70
2018-12-29T10:06:57.641Z,12.53
2018-12-29T10:09:38.220Z,11.60
2018-12-29T10:12:19.795Z,13.67
2018-12-29T10:15:01.370Z,11.00
2018-12-29T10:17:42.739Z,10.57
2018-12-29T10:20:24.163Z,10.23
2018-12-29T10:23:05.642Z,11.53
2018-12-29T10:25:47.154Z,8.13
2018-12-29T10:28:28.714Z,11.63
2018-12-29T10:31:09.834Z,8.53
2018-12-29T10:33:51.684Z,10.07
2018-12-29T10:36:32.829Z,8.80
2018-12-29T10:39:14.114Z,9.53
2018-12-29T10:41:55.843Z,8.77
2018-12-29T10:44:37.151Z,8.33
2018-12-29T10:47:18.061Z,7.47
2018-12-29T10:49:58.938Z,9.20
2018-12-29T10:52:39.580Z,9.80
2018-12-29T10:55:21.153Z,9.07
2018-12-29T10:58:02.881Z,6.67
2018-12-29T11:00:44.207Z,8.90
2018-12-29T11:03:24.857Z,9.17
2018-12-29T11:06:05.634Z,9.37
2018-12-29T11:08:46.783Z,6.87
2018-12-29T11:11:27.554Z,8.63
2018-12-29T11:14:08.159Z,7.57
2018-12-29T11:16:49.187Z,7.90
2018-12-29T11:19:29.742Z,8.10
2018-12-29T11:22:10.295Z,8.47
2018-12-29T11:24:50.864Z,7.17
2018-12-29T11:27:32.345Z,11.47
2018-12-29T11:30:12.849Z,9.43
2018-12-29T11:32:54.054Z,7.73
2018-12-29T11:35:35.359Z,7.57
2018-12-29T11:38:16.079Z,7.67
2018-12-29T11:40:56.815Z,9.43
2018-12-29T11:43:37.487Z,8.57
2018-12-29T11:46:18.250Z,9.37
2018-12-29T11:48:58.803Z,11.03
2018-12-29T11:51:39.307Z,7.67
2018-12-29T11:54:20.198Z,7.53
2018-12-29T11:57:00.771Z,9.60
2018-12-29T11:59:42.306Z,7.83
2018-12-29T12:02:24.641Z,5.97
2018-12-29T12:05:05.990Z,6.40
2018-12-29T12:07:47.322Z,5.97
2018-12-29T12:10:28.082Z,5.57
2018-12-29T12:13:08.668Z,7.67
2018-12-29T12:15:50.299Z,7.67
2018-12-29T12:18:31.532Z,5.47
2018-12-29T12:21:12.156Z,7.20
2018-12-29T12:23:52.962Z,6.03
2018-12-29T12:26:34.379Z,7.90
2018-12-29T12:29:15.250Z,8.27
2018-12-29T12:31:59.824Z,4.40
2018-12-29T12:34:40.549Z,4.50
2018-12-29T12:37:22.170Z,6.03
2018-12-29T12:40:04.024Z,6.90
2018-12-29T12:42:45.598Z,9.03
2018-12-29T12:45:27.039Z,4.17
2018-12-29T12:48:10.751Z,5.47
2018-12-29T12:50:51.510Z,5.37
2018-12-29T12:53:32.180Z,10.60
2018-12-29T12:56:13.545Z,4.80
2018-12-29T12:58:54.189Z,4.83
2018-12-29T13:01:35.990Z,6.37
2018-12-29T13:10:22.290Z,5.47
2018-12-29T13:13:03.460Z,6.10
2018-12-29T13:15:44.697Z,5.17
2018-12-29T13:18:26.386Z,7.87
2018-12-29T13:21:07.769Z,5.40
2018-12-29T13:23:49.055Z,6.33
2018-12-29T13:26:30.649Z,8.37
2018-12-29T13:29:12.148Z,7.43
2018-12-29T13:31:53.452Z,9.60
2018-12-29T13:34:34.383Z,6.83
2018-12-29T13:37:15.942Z,7.13
2018-12-29T13:39:56.132Z,5.10
2018-12-29T13:42:36.999Z,5.83
2018-12-29T13:45:17.624Z,6.10
2018-12-29T13:47:58.491Z,6.17
2018-12-29T13:50:39.471Z,4.90
2018-12-29T13:53:20.537Z,4.87
2018-12-29T13:56:00.392Z,4.30
2018-12-29T13:58:41.659Z,9.43
2018-12-29T14:01:23.406Z,4.97
2018-12-29T14:04:04.671Z,6.13
2018-12-29T14:06:45.935Z,5.37
2018-12-29T14:09:26.807Z,6.90
2018-12-29T14:12:07.573Z,4.43
2018-12-29T14:14:48.314Z,4.63
2018-12-29T14:17:29.173Z,4.83
2018-12-29T14:20:09.747Z,7.43
2018-12-29T14:22:50.399Z,4.13
2018-12-29T14:25:31.943Z,6.40
2018-12-29T14:28:13.578Z,4.90
2018-12-29T14:30:55.061Z,4.87
2018-12-29T14:33:36.941Z,6.80
2018-12-29T14:36:18.049Z,4.90
2018-12-29T14:38:58.918Z,4.97
2018-12-29T14:41:39.602Z,4.47
2018-12-29T14:44:19.783Z,4.47
2018-12-29T14:47:00.617Z,4.20
2018-12-29T14:49:41.542Z,4.73
2018-12-29T14:52:23.190Z,3.87
2018-12-29T14:55:04.163Z,5.03
2018-12-29T15:00:45.290Z,7.30
2018-12-29T15:03:25.969Z,4.07
2018-12-29T15:06:06.602Z,4.67
2018-12-29T15:08:47.269Z,5.00
2018-12-29T15:11:28.855Z,4.07
2018-12-29T15:14:10.441Z,3.43
2018-12-29T15:16:52.013Z,5.87
2018-12-29T15:19:33.454Z,2.90
2018-12-29T15:22:15.239Z,5.37
2018-12-29T15:24:56.843Z,3.70
2018-12-29T15:27:38.414Z,5.17
2018-12-29T15:30:19.003Z,3.37
2018-12-29T15:32:59.638Z,4.23
2018-12-29T15:35:41.214Z,6.73
2018-12-29T15:38:22.801Z,4.47
2018-12-29T15:41:04.575Z,3.07
2018-12-29T15:43:45.913Z,4.90
2018-12-29T15:46:15.842Z,3.30
2018-12-29T15:49:04.299Z,3.87
2018-12-29T15:51:45.702Z,3.40
2018-12-29T15:54:26.954Z,5.03
2018-12-29T15:57:08.349Z,4.47
2018-12-29T15:59:49.850Z,2.90
2018-12-29T16:02:30.591Z,2.30
2018-12-29T16:05:12.054Z,6.00
2018-12-29T16:07:53.851Z,3.70
2018-12-29T16:10:34.326Z,4.33
2018-12-29T16:13:14.869Z,4.23
2018-12-29T16:15:55.456Z,2.67
2018-12-29T16:18:36.919Z,5.57
2018-12-29T16:21:18.282Z,3.97
2018-12-29T16:23:58.926Z,6.67
2018-12-29T16:29:41.292Z,4.70
2018-12-29T16:32:22.174Z,5.97
2018-12-29T16:35:03.146Z,4.27
2018-12-29T16:37:43.711Z,4.13
2018-12-29T16:40:24.524Z,3.03
2018-12-29T16:43:05.445Z,3.37
2018-12-29T16:45:48.308Z,2.67
2018-12-29T16:48:29.725Z,4.23
2018-12-29T16:51:11.422Z,2.87
2018-12-29T16:53:52.787Z,3.10
2018-12-29T16:56:33.407Z,3.83
2018-12-29T16:59:14.027Z,2.93
2018-12-29T17:01:55.226Z,3.73
2018-12-29T17:04:36.095Z,3.10
2018-12-29T17:07:17.479Z,3.47
2018-12-29T17:09:58.939Z,3.97
2018-12-29T17:12:40.369Z,3.43
2018-12-29T17:15:21.972Z,3.40
2018-12-29T17:18:03.518Z,3.23
2018-12-29T17:20:32.981Z,2.70
2018-12-29T17:23:21.289Z,1.90
2018-12-29T17:26:02.501Z,3.23
2018-12-29T17:31:25.846Z,2.03
2018-12-29T17:34:14.049Z,2.60
2018-12-29T17:37:02.495Z,3.00
2018-12-29T17:39:43.283Z,2.47
2018-12-29T17:42:24.786Z,2.10
2018-12-29T17:45:05.908Z,1.63
2018-12-29T17:47:47.447Z,2.07
2018-12-29T17:50:28.167Z,2.93
2018-12-29T17:53:09.667Z,3.43
2018-12-29T17:55:50.918Z,1.83
2018-12-29T17:58:32.435Z,3.10
2018-12-29T18:01:14.073Z,8.93
2018-12-29T18:03:55.677Z,13.67
2018-12-29T18:06:37.010Z,19.17
2018-12-29T18:09:17.711Z,19.10
2018-12-29T18:11:59.266Z,19.87
2018-12-29T18:14:40.739Z,24.50
2018-12-29T18:17:21.537Z,22.63
2018-12-29T18:20:02.322Z,24.53
2018-12-29T18:22:42.962Z,23.47
2018-12-29T18:25:24.455Z,25.97
2018-12-29T18:28:05.335Z,25.30
2018-12-29T18:30:48.853Z,20.50
2018-12-29T18:33:37.077Z,21.60
2018-12-29T18:36:12.626Z,24.97
2018-12-29T18:38:54.130Z,22.87
2018-12-29T18:41:36.106Z,24.87
2018-12-29T18:44:17.289Z,23.10
2018-12-29T18:46:59.195Z,20.83
2018-12-29T18:49:40.911Z,20.60
2018-12-29T18:52:21.934Z,22.47
2018-12-29T18:55:03.564Z,25.50
2018-12-29T18:57:45.015Z,23.17
2018-12-29T19:00:25.989Z,24.20
2018-12-29T19:03:07.123Z,26.97
2018-12-29T19:05:47.735Z,16.37
2018-12-29T19:08:28.380Z,20.60
2018-12-29T19:11:09.082Z,17.17
2018-12-29T19:13:50.465Z,17.60
2018-12-29T19:16:31.726Z,13.90
2018-12-29T19:19:12.143Z,13.70
2018-12-29T19:21:53.063Z,22.47
2018-12-29T19:24:34.640Z,11.63
2018-12-29T19:27:15.966Z,12.17
2018-12-29T19:29:57.784Z,12.70
2018-12-29T19:32:39.442Z,15.90
2018-12-29T19:35:20.927Z,14.07
2018-12-29T19:38:02.434Z,12.57
2018-12-29T19:40:44.181Z,13.53
2018-12-29T19:43:25.650Z,11.37
2018-12-29T19:46:06.978Z,12.97
2018-12-29T19:51:49.769Z,14.13
2018-12-29T19:54:31.334Z,10.40
2018-12-29T19:57:12.890Z,9.60
2018-12-29T19:59:54.126Z,9.77
2018-12-29T20:02:35.876Z,10.23
2018-12-29T20:05:16.911Z,9.57
2018-12-29T20:07:57.975Z,7.80
2018-12-29T20:10:39.405Z,9.57
2018-12-29T20:13:20.723Z,9.53
2018-12-29T20:16:01.379Z,8.33
2018-12-29T20:18:41.044Z,7.47
2018-12-29T20:21:29.357Z,7.30
2018-12-29T20:24:10.381Z,9.23
2018-12-29T20:26:51.886Z,7.30
2018-12-29T20:29:33.239Z,7.10
2018-12-29T20:32:13.882Z,7.87
2018-12-29T20:34:55.111Z,6.20
2018-12-29T20:37:35.686Z,5.23
2018-12-29T20:40:17.051Z,5.57
2018-12-29T20:42:58.136Z,6.87
2018-12-29T20:45:39.503Z,6.53
2018-12-29T20:48:21.229Z,6.73
2018-12-29T20:51:02.590Z,8.37
2018-12-29T20:53:43.885Z,5.23
2018-12-29T20:56:24.635Z,5.93
2018-12-29T20:59:05.622Z,4.93
2018-12-29T21:01:46.287Z,5.83
2018-12-29T21:04:27.752Z,7.07
2018-12-29T21:13:03.867Z,8.03
2018-12-29T21:15:52.318Z,3.63
2018-12-29T21:18:32.989Z,9.13
2018-12-29T21:21:13.503Z,4.93
2018-12-29T21:23:54.309Z,5.77
2018-12-29T21:26:35.886Z,9.80
2018-12-29T21:29:17.522Z,5.77
2018-12-29T21:31:58.141Z,3.80
2018-12-29T21:34:39.286Z,5.83
2018-12-29T21:37:20.621Z,5.87
2018-12-29T21:40:01.942Z,5.23
2018-12-29T21:42:43.245Z,4.47
2018-12-29T21:45:24.766Z,7.93
2018-12-29T21:48:06.283Z,3.87
2018-12-29T21:50:47.068Z,11.23
2018-12-29T21:53:27.992Z,4.33
2018-12-29T21:56:07.642Z,4.27
2018-12-29T21:58:56.118Z,3.50
2018-12-29T22:01:37.071Z,4.93
2018-12-29T22:04:17.784Z,4.63
2018-12-29T22:06:58.486Z,4.80
2018-12-29T22:09:40.090Z,5.97
2018-12-29T22:12:20.792Z,4.10
2018-12-29T22:15:02.423Z,5.80
2018-12-29T22:17:43.786Z,4.87
2018-12-29T22:20:33.051Z,4.70
2018-12-29T22:23:07.707Z,5.90
2018-12-29T22:25:49.314Z,5.93
2018-12-29T22:28:30.722Z,4.47
2018-12-29T22:31:11.535Z,3.23
2018-12-29T22:33:52.787Z,7.40
2018-12-29T22:36:34.143Z,6.77
2018-12-29T22:39:15.638Z,4.47
2018-12-29T22:41:56.919Z,2.83
2018-12-29T22:44:38.695Z,6.17
2018-12-29T22:47:19.922Z,7.10
2018-12-29T22:50:00.451Z,5.37
2018-12-29T22:52:41.223Z,4.73
2018-12-29T22:55:22.640Z,2.40
2018-12-29T22:58:08.632Z,5.63
2018-12-29T23:00:46.807Z,5.10
2018-12-29T23:03:27.653Z,2.80
2018-12-29T23:06:09.146Z,6.07
2018-12-29T23:08:49.928Z,2.87
2018-12-29T23:11:31.423Z,4.27
2018-12-29T23:14:12.825Z,4.73
2018-12-29T23:16:54.014Z,2.27
2018-12-29T23:19:35.852Z,3.83
2018-12-29T23:22:16.388Z,11.03
2018-12-29T23:24:57.147Z,4.47
2018-12-29T23:27:38.578Z,5.67
2018-12-29T23:30:19.865Z,9.97
2018-12-29T23:33:00.882Z,2.80
2018-12-29T23:35:41.612Z,4.40
2018-12-29T23:38:23.051Z,3.83
2018-12-29T23:41:04.148Z,4.87
2018-12-29T23:43:45.073Z,3.57
2018-12-29T23:46:26.054Z,4.73
2018-12-29T23:49:07.638Z,4.50
2018-12-29T23:51:49.251Z,3.97
2018-12-29T23:54:30.663Z,2.73
2018-12-29T23:57:12.272Z,5.10
2018-12-29T23:59:52.943Z,8.03
